F/V Atalante 3 — FHUX — position and weather

sailwx.info

Track history (hours):
 
Tides and Currents Weather Stations Pressure Air Temp Water Temp Dewpoint Dewpoint Depression Visibility Wind Speed Wind Dir Waves Ship Positions

F/V Atalante 3

Last reported at 2017-Nov-19 02:35 UTC. Time now 2017-Nov-22 11:19 UTC.
Position N 45°15' W 001°37'.

Type: Other ship. MMSI: 228211000.

Date/timePositionNaut miles runAvg speedWind from/ knotsBaromVisibWave heightAir tempDewpointWater temp
2017-Nov-19 02:35N 45°15' W 001°37'0 0.2
2017-Nov-19 02:30N 45°15' W 001°37'0 0.1
2017-Nov-19 01:08N 45°15' W 001°37'0 0.2
2017-Nov-19 00:59N 45°15' W 001°37'0 0.0
2017-Nov-19 00:29N 45°15' W 001°37'0 0.1
2017-Nov-18 23:59N 45°15' W 001°37'0 0.1
2017-Nov-18 23:30N 45°15' W 001°37'0 0.0
2017-Nov-18 23:00N 45°15' W 001°37'0 0.0
2017-Nov-18 22:27N 45°15' W 001°37'0 0.1
2017-Nov-18 21:55N 45°15' W 001°37'0 0.2
2017-Nov-18 21:23N 45°15' W 001°37'0 0.1
2017-Nov-18 20:49N 45°15' W 001°37'0 0.1
2017-Nov-18 20:17N 45°15' W 001°37'1 0.0
2017-Nov-17 14:52N 45°14' W 001°38'0 0.0
2017-Nov-17 14:30N 45°14' W 001°38'3 4.9
2017-Nov-17 13:56N 45°17' W 001°38'1 0.9
2017-Nov-17 12:46N 45°16' W 001°37'1 2.9
2017-Nov-17 12:24N 45°15' W 001°37'3 7.5
2017-Nov-17 12:00N 45°12' W 001°36'5 8.7
2017-Nov-17 11:29N 45°08' W 001°33'4 8.7
2017-Nov-17 11:00N 45°04' W 001°31'6 8.8
2017-Nov-17 10:19N 44°59' W 001°28'3 8.8
2017-Nov-17 10:00N 44°56' W 001°27'4 8.8
2017-Nov-17 09:30N 44°52' W 001°24'4 8.8
2017-Nov-17 09:00N 44°48' W 001°22'4 8.8
2017-Nov-17 08:30N 44°44' W 001°21'4 8.8
2017-Nov-17 08:00N 44°39' W 001°20'4 8.8
2017-Nov-17 07:30N 44°35' W 001°18'3 6.8
2017-Nov-17 07:00N 44°37' W 001°14'5 9.6
2017-Nov-17 06:30N 44°40' W 001°09'1 1.3
2017-Nov-17 06:00N 44°39' W 001°09'0 0.0
2017-Nov-17 05:30N 44°39' W 001°09'0 0.0
2017-Nov-17 05:00N 44°39' W 001°09'0 0.0
2017-Nov-17 04:30N 44°39' W 001°09'0 0.0
2017-Nov-17 04:00N 44°39' W 001°09'0 0.0
2017-Nov-17 03:30N 44°39' W 001°09'0 0.0
2017-Nov-17 03:00N 44°39' W 001°09'0 0.0
2017-Nov-17 02:30N 44°39' W 001°09'0 0.0
2017-Nov-17 02:00N 44°39' W 001°09'0 0.0
2017-Nov-17 01:30N 44°39' W 001°09'0 0.0
2017-Nov-17 01:00N 44°39' W 001°09'0 0.0
2017-Nov-17 00:30N 44°39' W 001°09'0 0.0
2017-Nov-17 00:00N 44°39' W 001°09'0 0.0
2017-Nov-16 23:31N 44°39' W 001°09'0 0.0
2017-Nov-16 23:00N 44°39' W 001°09'0 0.0
2017-Nov-16 22:30N 44°39' W 001°09'0 0.0
2017-Nov-16 22:00N 44°39' W 001°09'0 0.0
2017-Nov-16 21:30N 44°39' W 001°09'0 0.0
2017-Nov-16 21:00N 44°39' W 001°09'0 0.0
2017-Nov-16 20:30N 44°39' W 001°09'0 0.0
2017-Nov-16 20:00N 44°39' W 001°09'0 0.0
2017-Nov-16 19:30N 44°39' W 001°09'0 0.0
2017-Nov-16 19:00N 44°39' W 001°09'0 0.0
2017-Nov-16 18:30N 44°39' W 001°09'0 0.0
2017-Nov-16 18:00N 44°39' W 001°09'0 0.0
2017-Nov-16 17:31N 44°39' W 001°09'0 0.0
2017-Nov-16 17:00N 44°39' W 001°09'0 0.0
2017-Nov-16 16:30N 44°39' W 001°09'0 0.0
2017-Nov-16 16:00N 44°39' W 001°09'0 0.0
2017-Nov-16 15:30N 44°39' W 001°09'0 0.0
2017-Nov-16 15:00N 44°39' W 001°09'0 0.0
2017-Nov-16 14:31N 44°39' W 001°09'0 0.0
2017-Nov-16 14:00N 44°39' W 001°09'0 0.0
2017-Nov-16 13:30N 44°39' W 001°09'0 0.0
2017-Nov-16 13:01N 44°39' W 001°09'0 0.0
2017-Nov-16 12:30N 44°39' W 001°09'0 0.0
2017-Nov-16 12:01N 44°39' W 001°09'0 0.0
2017-Nov-16 11:30N 44°39' W 001°09'0 0.0
2017-Nov-16 11:01N 44°39' W 001°09'0 0.0
2017-Nov-16 10:30N 44°39' W 001°09'0 0.0
2017-Nov-16 10:00N 44°39' W 001°09'0 0.0
2017-Nov-16 09:30N 44°39' W 001°09'0 0.0
2017-Nov-16 09:01N 44°39' W 001°09'  
2017-Nov-10 15:01N 44°39' W 001°09'0 0.1
2017-Nov-10 15:00N 44°39' W 001°09'0 0.2
2017-Nov-10 14:30N 44°40' W 001°09'  
Track history (hours):
 
Tides and Currents Weather Stations Pressure Air Temp Water Temp Dewpoint Dewpoint Depression Visibility Wind Speed Wind Dir Waves Ship Positions

F/V Atalante 3

Last reported at 2017-Nov-19 02:35 UTC. Time now 2017-Nov-22 11:19 UTC.
Position N 45°15' W 001°37'.

Type: Other ship. MMSI: 228211000.

Date/timePositionNaut miles runAvg speedWind from/ knotsBaromVisibWave heightAir tempDewpointWater temp
2017-Nov-19 02:35N 45°15' W 001°37'0 0.2
2017-Nov-19 02:30N 45°15' W 001°37'0 0.1
2017-Nov-19 01:08N 45°15' W 001°37'0 0.2
2017-Nov-19 00:59N 45°15' W 001°37'0 0.0
2017-Nov-19 00:29N 45°15' W 001°37'0 0.1
2017-Nov-18 23:59N 45°15' W 001°37'0 0.1
2017-Nov-18 23:30N 45°15' W 001°37'0 0.0
2017-Nov-18 23:00N 45°15' W 001°37'0 0.0
2017-Nov-18 22:27N 45°15' W 001°37'0 0.1
2017-Nov-18 21:55N 45°15' W 001°37'0 0.2
2017-Nov-18 21:23N 45°15' W 001°37'0 0.1
2017-Nov-18 20:49N 45°15' W 001°37'0 0.1
2017-Nov-18 20:17N 45°15' W 001°37'1 0.0
2017-Nov-17 14:52N 45°14' W 001°38'0 0.0
2017-Nov-17 14:30N 45°14' W 001°38'3 4.9
2017-Nov-17 13:56N 45°17' W 001°38'1 0.9
2017-Nov-17 12:46N 45°16' W 001°37'1 2.9
2017-Nov-17 12:24N 45°15' W 001°37'3 7.5
2017-Nov-17 12:00N 45°12' W 001°36'5 8.7
2017-Nov-17 11:29N 45°08' W 001°33'4 8.7
2017-Nov-17 11:00N 45°04' W 001°31'6 8.8
2017-Nov-17 10:19N 44°59' W 001°28'3 8.8
2017-Nov-17 10:00N 44°56' W 001°27'4 8.8
2017-Nov-17 09:30N 44°52' W 001°24'4 8.8
2017-Nov-17 09:00N 44°48' W 001°22'4 8.8
2017-Nov-17 08:30N 44°44' W 001°21'4 8.8
2017-Nov-17 08:00N 44°39' W 001°20'4 8.8
2017-Nov-17 07:30N 44°35' W 001°18'3 6.8
2017-Nov-17 07:00N 44°37' W 001°14'5 9.6
2017-Nov-17 06:30N 44°40' W 001°09'1 1.3
2017-Nov-17 06:00N 44°39' W 001°09'0 0.0
2017-Nov-17 05:30N 44°39' W 001°09'0 0.0
2017-Nov-17 05:00N 44°39' W 001°09'0 0.0
2017-Nov-17 04:30N 44°39' W 001°09'0 0.0
2017-Nov-17 04:00N 44°39' W 001°09'0 0.0
2017-Nov-17 03:30N 44°39' W 001°09'0 0.0
2017-Nov-17 03:00N 44°39' W 001°09'0 0.0
2017-Nov-17 02:30N 44°39' W 001°09'0 0.0
2017-Nov-17 02:00N 44°39' W 001°09'0 0.0
2017-Nov-17 01:30N 44°39' W 001°09'0 0.0
2017-Nov-17 01:00N 44°39' W 001°09'0 0.0
2017-Nov-17 00:30N 44°39' W 001°09'0 0.0
2017-Nov-17 00:00N 44°39' W 001°09'0 0.0
2017-Nov-16 23:31N 44°39' W 001°09'0 0.0
2017-Nov-16 23:00N 44°39' W 001°09'0 0.0
2017-Nov-16 22:30N 44°39' W 001°09'0 0.0
2017-Nov-16 22:00N 44°39' W 001°09'0 0.0
2017-Nov-16 21:30N 44°39' W 001°09'0 0.0
2017-Nov-16 21:00N 44°39' W 001°09'0 0.0
2017-Nov-16 20:30N 44°39' W 001°09'0 0.0
2017-Nov-16 20:00N 44°39' W 001°09'0 0.0
2017-Nov-16 19:30N 44°39' W 001°09'0 0.0
2017-Nov-16 19:00N 44°39' W 001°09'0 0.0
2017-Nov-16 18:30N 44°39' W 001°09'0 0.0
2017-Nov-16 18:00N 44°39' W 001°09'0 0.0
2017-Nov-16 17:31N 44°39' W 001°09'0 0.0
2017-Nov-16 17:00N 44°39' W 001°09'0 0.0
2017-Nov-16 16:30N 44°39' W 001°09'0 0.0
2017-Nov-16 16:00N 44°39' W 001°09'0 0.0
2017-Nov-16 15:30N 44°39' W 001°09'0 0.0
2017-Nov-16 15:00N 44°39' W 001°09'0 0.0
2017-Nov-16 14:31N 44°39' W 001°09'0 0.0
2017-Nov-16 14:00N 44°39' W 001°09'0 0.0
2017-Nov-16 13:30N 44°39' W 001°09'0 0.0
2017-Nov-16 13:01N 44°39' W 001°09'0 0.0
2017-Nov-16 12:30N 44°39' W 001°09'0 0.0
2017-Nov-16 12:01N 44°39' W 001°09'0 0.0
2017-Nov-16 11:30N 44°39' W 001°09'0 0.0
2017-Nov-16 11:01N 44°39' W 001°09'0 0.0
2017-Nov-16 10:30N 44°39' W 001°09'0 0.0
2017-Nov-16 10:00N 44°39' W 001°09'0 0.0
2017-Nov-16 09:30N 44°39' W 001°09'0 0.0
2017-Nov-16 09:01N 44°39' W 001°09'  
2017-Nov-10 15:01N 44°39' W 001°09'0 0.1
2017-Nov-10 15:00N 44°39' W 001°09'0 0.2
2017-Nov-10 14:30N 44°40' W 001°09'  

Dump ship's entire track history